sensor_id;sensor_type;location;lat;lon;timestamp;P1;durP1;ratioP1;P2;durP2;ratioP2
3249;SDS011;1637;42.020;23.992;2022-11-15T00:01:14;50.80;;;24.23;;
3249;SDS011;1637;42.020;23.992;2022-11-15T00:03:43;49.40;;;24.70;;
3249;SDS011;1637;42.020;23.992;2022-11-15T00:06:10;61.07;;;23.20;;
3249;SDS011;1637;42.020;23.992;2022-11-15T00:08:37;59.00;;;24.70;;
3249;SDS011;1637;42.020;23.992;2022-11-15T00:11:04;65.47;;;25.40;;
3249;SDS011;1637;42.020;23.992;2022-11-15T00:13:32;65.57;;;30.63;;
3249;SDS011;1637;42.020;23.992;2022-11-15T00:16:00;97.27;;;33.83;;
3249;SDS011;1637;42.020;23.992;2022-11-15T00:18:27;83.77;;;34.27;;
3249;SDS011;1637;42.020;23.992;2022-11-15T00:20:55;100.93;;;34.70;;
3249;SDS011;1637;42.020;23.992;2022-11-15T00:23:22;94.57;;;37.13;;
3249;SDS011;1637;42.020;23.992;2022-11-15T00:25:54;90.97;;;34.97;;
3249;SDS011;1637;42.020;23.992;2022-11-15T00:28:21;82.63;;;32.53;;
3249;SDS011;1637;42.020;23.992;2022-11-15T00:30:49;63.10;;;28.47;;
3249;SDS011;1637;42.020;23.992;2022-11-15T00:33:17;79.30;;;33.40;;
3249;SDS011;1637;42.020;23.992;2022-11-15T00:35:44;89.73;;;34.60;;
3249;SDS011;1637;42.020;23.992;2022-11-15T00:38:10;119.87;;;39.90;;
3249;SDS011;1637;42.020;23.992;2022-11-15T00:40:37;143.20;;;44.20;;
3249;SDS011;1637;42.020;23.992;2022-11-15T00:43:04;112.10;;;39.73;;
3249;SDS011;1637;42.020;23.992;2022-11-15T00:45:31;80.80;;;25.73;;
3249;SDS011;1637;42.020;23.992;2022-11-15T00:47:59;81.67;;;27.00;;
3249;SDS011;1637;42.020;23.992;2022-11-15T00:50:26;84.23;;;26.60;;
3249;SDS011;1637;42.020;23.992;2022-11-15T00:52:52;56.80;;;24.50;;
3249;SDS011;1637;42.020;23.992;2022-11-15T00:55:19;47.07;;;20.13;;
3249;SDS011;1637;42.020;23.992;2022-11-15T00:57:46;64.77;;;26.50;;
3249;SDS011;1637;42.020;23.992;2022-11-15T01:00:13;78.37;;;29.93;;
3249;SDS011;1637;42.020;23.992;2022-11-15T01:02:40;79.37;;;27.37;;
3249;SDS011;1637;42.020;23.992;2022-11-15T01:05:08;77.37;;;27.40;;
3249;SDS011;1637;42.020;23.992;2022-11-15T01:07:35;50.47;;;21.67;;
3249;SDS011;1637;42.020;23.992;2022-11-15T01:10:02;69.23;;;25.53;;
3249;SDS011;1637;42.020;23.992;2022-11-15T01:12:29;76.90;;;25.43;;
3249;SDS011;1637;42.020;23.992;2022-11-15T01:14:57;68.60;;;25.77;;
3249;SDS011;1637;42.020;23.992;2022-11-15T01:17:23;64.67;;;24.10;;
3249;SDS011;1637;42.020;23.992;2022-11-15T01:19:50;45.90;;;21.67;;
3249;SDS011;1637;42.020;23.992;2022-11-15T01:22:18;74.90;;;24.30;;
3249;SDS011;1637;42.020;23.992;2022-11-15T01:24:45;54.87;;;24.90;;
3249;SDS011;1637;42.020;23.992;2022-11-15T01:27:12;62.57;;;21.47;;
3249;SDS011;1637;42.020;23.992;2022-11-15T01:29:39;58.00;;;22.67;;
3249;SDS011;1637;42.020;23.992;2022-11-15T01:32:06;54.77;;;21.53;;
3249;SDS011;1637;42.020;23.992;2022-11-15T01:34:32;90.60;;;26.90;;
3249;SDS011;1637;42.020;23.992;2022-11-15T01:36:59;72.33;;;32.03;;
3249;SDS011;1637;42.020;23.992;2022-11-15T01:39:28;79.70;;;25.97;;
3249;SDS011;1637;42.020;23.992;2022-11-15T01:41:55;68.93;;;29.77;;
3249;SDS011;1637;42.020;23.992;2022-11-15T01:44:34;66.73;;;24.83;;
3249;SDS011;1637;42.020;23.992;2022-11-15T01:47:06;108.30;;;27.17;;
3249;SDS011;1637;42.020;23.992;2022-11-15T01:49:38;87.33;;;29.67;;
3249;SDS011;1637;42.020;23.992;2022-11-15T01:52:09;58.40;;;24.03;;
3249;SDS011;1637;42.020;23.992;2022-11-15T01:54:39;74.83;;;24.57;;
3249;SDS011;1637;42.020;23.992;2022-11-15T01:57:07;59.47;;;22.60;;
3249;SDS011;1637;42.020;23.992;2022-11-15T01:59:37;66.57;;;23.70;;
3249;SDS011;1637;42.020;23.992;2022-11-15T02:02:05;72.50;;;22.67;;
3249;SDS011;1637;42.020;23.992;2022-11-15T02:04:33;59.40;;;22.10;;
3249;SDS011;1637;42.020;23.992;2022-11-15T02:07:04;70.57;;;21.70;;
3249;SDS011;1637;42.020;23.992;2022-11-15T02:09:32;76.57;;;22.10;;
3249;SDS011;1637;42.020;23.992;2022-11-15T02:12:00;85.03;;;23.50;;
3249;SDS011;1637;42.020;23.992;2022-11-15T02:14:27;52.77;;;23.10;;
3249;SDS011;1637;42.020;23.992;2022-11-15T02:16:58;47.80;;;21.20;;
3249;SDS011;1637;42.020;23.992;2022-11-15T02:19:40;47.67;;;20.87;;
3249;SDS011;1637;42.020;23.992;2022-11-15T02:22:32;52.70;;;20.27;;
3249;SDS011;1637;42.020;23.992;2022-11-15T02:25:14;63.67;;;21.33;;
3249;SDS011;1637;42.020;23.992;2022-11-15T02:28:02;85.17;;;23.50;;
3249;SDS011;1637;42.020;23.992;2022-11-15T02:30:44;46.70;;;21.73;;
3249;SDS011;1637;42.020;23.992;2022-11-15T02:33:17;53.80;;;23.40;;
3249;SDS011;1637;42.020;23.992;2022-11-15T02:35:57;43.00;;;20.30;;
3249;SDS011;1637;42.020;23.992;2022-11-15T02:38:29;44.97;;;21.00;;
3249;SDS011;1637;42.020;23.992;2022-11-15T02:41:01;54.57;;;21.73;;
3249;SDS011;1637;42.020;23.992;2022-11-15T02:43:33;63.23;;;22.00;;
3249;SDS011;1637;42.020;23.992;2022-11-15T02:46:26;55.50;;;23.50;;
3249;SDS011;1637;42.020;23.992;2022-11-15T02:49:16;54.07;;;25.40;;
3249;SDS011;1637;42.020;23.992;2022-11-15T02:51:44;55.10;;;23.50;;
3249;SDS011;1637;42.020;23.992;2022-11-15T02:54:14;68.13;;;24.20;;
3249;SDS011;1637;42.020;23.992;2022-11-15T02:56:44;47.10;;;24.60;;
3249;SDS011;1637;42.020;23.992;2022-11-15T02:59:13;61.80;;;23.50;;
3249;SDS011;1637;42.020;23.992;2022-11-15T03:02:05;53.83;;;25.00;;
3249;SDS011;1637;42.020;23.992;2022-11-15T03:04:42;66.83;;;23.73;;
3249;SDS011;1637;42.020;23.992;2022-11-15T03:07:11;74.87;;;22.87;;
3249;SDS011;1637;42.020;23.992;2022-11-15T03:09:46;67.10;;;22.10;;
3249;SDS011;1637;42.020;23.992;2022-11-15T03:12:20;112.40;;;26.27;;
3249;SDS011;1637;42.020;23.992;2022-11-15T03:14:53;73.47;;;21.70;;
3249;SDS011;1637;42.020;23.992;2022-11-15T03:17:27;106.60;;;24.27;;
3249;SDS011;1637;42.020;23.992;2022-11-15T03:19:57;124.97;;;24.10;;
3249;SDS011;1637;42.020;23.992;2022-11-15T03:22:27;55.50;;;20.47;;
3249;SDS011;1637;42.020;23.992;2022-11-15T03:25:00;65.57;;;23.83;;
3249;SDS011;1637;42.020;23.992;2022-11-15T03:27:32;143.83;;;25.23;;
3249;SDS011;1637;42.020;23.992;2022-11-15T03:30:03;65.83;;;20.97;;
3249;SDS011;1637;42.020;23.992;2022-11-15T03:32:34;64.60;;;26.33;;
3249;SDS011;1637;42.020;23.992;2022-11-15T03:35:05;117.33;;;27.43;;
3249;SDS011;1637;42.020;23.992;2022-11-15T03:37:36;177.17;;;27.90;;
3249;SDS011;1637;42.020;23.992;2022-11-15T03:40:08;212.27;;;36.27;;
3249;SDS011;1637;42.020;23.992;2022-11-15T03:42:37;66.47;;;23.47;;
3249;SDS011;1637;42.020;23.992;2022-11-15T03:45:10;85.20;;;24.33;;
3249;SDS011;1637;42.020;23.992;2022-11-15T03:47:43;111.47;;;20.80;;
3249;SDS011;1637;42.020;23.992;2022-11-15T03:50:15;81.63;;;21.03;;
3249;SDS011;1637;42.020;23.992;2022-11-15T03:52:45;58.50;;;18.83;;
3249;SDS011;1637;42.020;23.992;2022-11-15T03:55:14;94.43;;;18.83;;
3249;SDS011;1637;42.020;23.992;2022-11-15T03:57:43;66.60;;;17.80;;
3249;SDS011;1637;42.020;23.992;2022-11-15T04:00:11;75.37;;;20.83;;
3249;SDS011;1637;42.020;23.992;2022-11-15T04:02:38;63.43;;;20.50;;
3249;SDS011;1637;42.020;23.992;2022-11-15T04:05:06;48.60;;;17.20;;
3249;SDS011;1637;42.020;23.992;2022-11-15T04:07:33;52.73;;;18.03;;
3249;SDS011;1637;42.020;23.992;2022-11-15T04:10:00;55.47;;;20.10;;
3249;SDS011;1637;42.020;23.992;2022-11-15T04:12:30;58.73;;;20.80;;
3249;SDS011;1637;42.020;23.992;2022-11-15T04:15:01;59.63;;;20.90;;
3249;SDS011;1637;42.020;23.992;2022-11-15T04:17:36;41.40;;;17.83;;
3249;SDS011;1637;42.020;23.992;2022-11-15T04:20:07;76.20;;;32.80;;
3249;SDS011;1637;42.020;23.992;2022-11-15T04:22:54;46.63;;;17.47;;
3249;SDS011;1637;42.020;23.992;2022-11-15T04:25:39;58.70;;;18.80;;
3249;SDS011;1637;42.020;23.992;2022-11-15T04:28:06;61.40;;;19.20;;
3249;SDS011;1637;42.020;23.992;2022-11-15T04:30:32;50.33;;;18.20;;
3249;SDS011;1637;42.020;23.992;2022-11-15T04:32:59;53.53;;;17.67;;
3249;SDS011;1637;42.020;23.992;2022-11-15T04:35:28;52.17;;;17.70;;
3249;SDS011;1637;42.020;23.992;2022-11-15T04:37:55;59.50;;;18.20;;
3249;SDS011;1637;42.020;23.992;2022-11-15T04:40:21;85.13;;;19.53;;
3249;SDS011;1637;42.020;23.992;2022-11-15T04:42:48;63.53;;;19.60;;
3249;SDS011;1637;42.020;23.992;2022-11-15T04:45:15;76.77;;;22.97;;
3249;SDS011;1637;42.020;23.992;2022-11-15T04:47:42;70.23;;;24.77;;
3249;SDS011;1637;42.020;23.992;2022-11-15T04:50:10;78.80;;;19.93;;
3249;SDS011;1637;42.020;23.992;2022-11-15T04:52:39;49.17;;;19.40;;
3249;SDS011;1637;42.020;23.992;2022-11-15T04:55:08;60.03;;;27.27;;
3249;SDS011;1637;42.020;23.992;2022-11-15T04:57:35;94.90;;;26.23;;
3249;SDS011;1637;42.020;23.992;2022-11-15T05:00:02;94.93;;;31.57;;
3249;SDS011;1637;42.020;23.992;2022-11-15T05:02:30;44.17;;;18.80;;
3249;SDS011;1637;42.020;23.992;2022-11-15T05:05:11;79.07;;;30.07;;
3249;SDS011;1637;42.020;23.992;2022-11-15T05:07:39;74.30;;;22.10;;
3249;SDS011;1637;42.020;23.992;2022-11-15T05:10:06;80.07;;;23.80;;
3249;SDS011;1637;42.020;23.992;2022-11-15T05:12:33;84.07;;;23.33;;
3249;SDS011;1637;42.020;23.992;2022-11-15T05:15:00;95.67;;;25.23;;
3249;SDS011;1637;42.020;23.992;2022-11-15T05:17:27;100.27;;;27.60;;
3249;SDS011;1637;42.020;23.992;2022-11-15T05:19:54;71.57;;;26.20;;
3249;SDS011;1637;42.020;23.992;2022-11-15T05:22:21;237.77;;;60.00;;
3249;SDS011;1637;42.020;23.992;2022-11-15T05:24:49;73.27;;;26.80;;
3249;SDS011;1637;42.020;23.992;2022-11-15T05:27:16;84.80;;;30.07;;
3249;SDS011;1637;42.020;23.992;2022-11-15T05:29:43;119.90;;;33.70;;
3249;SDS011;1637;42.020;23.992;2022-11-15T05:32:10;90.53;;;34.57;;
3249;SDS011;1637;42.020;23.992;2022-11-15T05:34:38;137.13;;;40.80;;
3249;SDS011;1637;42.020;23.992;2022-11-15T05:37:05;148.57;;;42.73;;
3249;SDS011;1637;42.020;23.992;2022-11-15T05:39:32;173.87;;;52.40;;
3249;SDS011;1637;42.020;23.992;2022-11-15T05:42:01;153.80;;;50.13;;
3249;SDS011;1637;42.020;23.992;2022-11-15T05:44:32;111.27;;;38.50;;
3249;SDS011;1637;42.020;23.992;2022-11-15T05:47:00;148.33;;;38.80;;
3249;SDS011;1637;42.020;23.992;2022-11-15T05:49:28;98.93;;;34.73;;
3249;SDS011;1637;42.020;23.992;2022-11-15T05:51:57;139.70;;;48.70;;
3249;SDS011;1637;42.020;23.992;2022-11-15T05:54:25;144.00;;;48.73;;
3249;SDS011;1637;42.020;23.992;2022-11-15T05:56:52;87.87;;;35.90;;
3249;SDS011;1637;42.020;23.992;2022-11-15T05:59:22;110.70;;;35.10;;
3249;SDS011;1637;42.020;23.992;2022-11-15T06:01:49;105.47;;;36.27;;
3249;SDS011;1637;42.020;23.992;2022-11-15T06:04:16;52.50;;;23.00;;
3249;SDS011;1637;42.020;23.992;2022-11-15T06:06:42;72.33;;;25.17;;
3249;SDS011;1637;42.020;23.992;2022-11-15T06:09:09;68.40;;;22.97;;
3249;SDS011;1637;42.020;23.992;2022-11-15T06:11:36;78.47;;;26.37;;
3249;SDS011;1637;42.020;23.992;2022-11-15T06:14:03;55.83;;;23.03;;
3249;SDS011;1637;42.020;23.992;2022-11-15T06:16:31;83.67;;;26.73;;
3249;SDS011;1637;42.020;23.992;2022-11-15T06:18:58;94.70;;;28.57;;
3249;SDS011;1637;42.020;23.992;2022-11-15T06:21:25;91.83;;;32.33;;
3249;SDS011;1637;42.020;23.992;2022-11-15T06:23:53;103.17;;;29.53;;
3249;SDS011;1637;42.020;23.992;2022-11-15T06:26:20;84.47;;;32.47;;
3249;SDS011;1637;42.020;23.992;2022-11-15T06:28:46;118.07;;;40.50;;
3249;SDS011;1637;42.020;23.992;2022-11-15T06:31:13;133.30;;;54.30;;
3249;SDS011;1637;42.020;23.992;2022-11-15T06:33:41;148.47;;;61.43;;
3249;SDS011;1637;42.020;23.992;2022-11-15T06:36:09;106.87;;;37.17;;
3249;SDS011;1637;42.020;23.992;2022-11-15T06:38:40;90.67;;;37.97;;
3249;SDS011;1637;42.020;23.992;2022-11-15T06:41:07;74.87;;;36.60;;
3249;SDS011;1637;42.020;23.992;2022-11-15T06:43:35;61.60;;;25.00;;
3249;SDS011;1637;42.020;23.992;2022-11-15T06:46:03;51.97;;;24.03;;
3249;SDS011;1637;42.020;23.992;2022-11-15T06:48:31;102.47;;;59.33;;
3249;SDS011;1637;42.020;23.992;2022-11-15T06:51:01;84.57;;;35.33;;
3249;SDS011;1637;42.020;23.992;2022-11-15T06:53:29;41.53;;;18.73;;
3249;SDS011;1637;42.020;23.992;2022-11-15T06:55:58;40.07;;;14.77;;
3249;SDS011;1637;42.020;23.992;2022-11-15T06:58:25;39.87;;;17.57;;
3249;SDS011;1637;42.020;23.992;2022-11-15T07:00:52;49.43;;;18.83;;
3249;SDS011;1637;42.020;23.992;2022-11-15T07:03:20;41.17;;;18.43;;
3249;SDS011;1637;42.020;23.992;2022-11-15T07:05:50;35.23;;;17.17;;
3249;SDS011;1637;42.020;23.992;2022-11-15T07:08:19;48.60;;;20.57;;
3249;SDS011;1637;42.020;23.992;2022-11-15T07:10:46;73.37;;;28.50;;
3249;SDS011;1637;42.020;23.992;2022-11-15T07:13:13;56.90;;;26.77;;
3249;SDS011;1637;42.020;23.992;2022-11-15T07:15:40;95.93;;;36.90;;
3249;SDS011;1637;42.020;23.992;2022-11-15T07:18:07;108.30;;;46.80;;
3249;SDS011;1637;42.020;23.992;2022-11-15T07:20:34;106.70;;;44.27;;
3249;SDS011;1637;42.020;23.992;2022-11-15T07:23:00;110.73;;;48.30;;
3249;SDS011;1637;42.020;23.992;2022-11-15T07:25:29;113.57;;;48.70;;
3249;SDS011;1637;42.020;23.992;2022-11-15T07:27:56;123.33;;;51.67;;
3249;SDS011;1637;42.020;23.992;2022-11-15T07:30:24;100.30;;;47.97;;
3249;SDS011;1637;42.020;23.992;2022-11-15T07:32:52;102.67;;;45.37;;
3249;SDS011;1637;42.020;23.992;2022-11-15T07:35:20;108.30;;;39.03;;
3249;SDS011;1637;42.020;23.992;2022-11-15T07:37:52;104.70;;;38.87;;
3249;SDS011;1637;42.020;23.992;2022-11-15T07:40:20;109.77;;;40.87;;
3249;SDS011;1637;42.020;23.992;2022-11-15T07:42:48;98.63;;;39.50;;
3249;SDS011;1637;42.020;23.992;2022-11-15T07:45:22;93.13;;;37.83;;
3249;SDS011;1637;42.020;23.992;2022-11-15T07:47:52;59.87;;;28.00;;
3249;SDS011;1637;42.020;23.992;2022-11-15T07:50:19;54.27;;;27.30;;
3249;SDS011;1637;42.020;23.992;2022-11-15T07:52:46;51.83;;;26.30;;
3249;SDS011;1637;42.020;23.992;2022-11-15T07:55:13;41.57;;;26.53;;
3249;SDS011;1637;42.020;23.992;2022-11-15T07:57:40;35.70;;;18.33;;
3249;SDS011;1637;42.020;23.992;2022-11-15T08:00:09;49.73;;;30.00;;
3249;SDS011;1637;42.020;23.992;2022-11-15T08:02:36;30.50;;;19.67;;
3249;SDS011;1637;42.020;23.992;2022-11-15T08:05:03;32.47;;;21.57;;
3249;SDS011;1637;42.020;23.992;2022-11-15T08:07:31;37.97;;;19.30;;
3249;SDS011;1637;42.020;23.992;2022-11-15T08:09:58;17.37;;;11.53;;
3249;SDS011;1637;42.020;23.992;2022-11-15T08:12:26;22.97;;;13.40;;
3249;SDS011;1637;42.020;23.992;2022-11-15T08:14:53;34.23;;;14.10;;
3249;SDS011;1637;42.020;23.992;2022-11-15T08:17:22;27.03;;;12.30;;
3249;SDS011;1637;42.020;23.992;2022-11-15T08:19:50;31.57;;;19.50;;
3249;SDS011;1637;42.020;23.992;2022-11-15T08:22:17;48.33;;;22.63;;
3249;SDS011;1637;42.020;23.992;2022-11-15T08:24:44;50.77;;;30.70;;
3249;SDS011;1637;42.020;23.992;2022-11-15T08:27:11;28.83;;;19.60;;
3249;SDS011;1637;42.020;23.992;2022-11-15T08:29:42;31.07;;;16.50;;
3249;SDS011;1637;42.020;23.992;2022-11-15T08:32:09;30.10;;;16.10;;
3249;SDS011;1637;42.020;23.992;2022-11-15T08:34:37;84.20;;;44.97;;
3249;SDS011;1637;42.020;23.992;2022-11-15T08:37:04;35.60;;;25.17;;
3249;SDS011;1637;42.020;23.992;2022-11-15T08:39:31;92.20;;;70.87;;
3249;SDS011;1637;42.020;23.992;2022-11-15T08:41:58;28.97;;;15.60;;
3249;SDS011;1637;42.020;23.992;2022-11-15T08:44:25;20.93;;;12.30;;
3249;SDS011;1637;42.020;23.992;2022-11-15T08:46:52;17.47;;;12.00;;
3249;SDS011;1637;42.020;23.992;2022-11-15T08:49:19;22.27;;;14.13;;
3249;SDS011;1637;42.020;23.992;2022-11-15T08:51:47;34.10;;;13.70;;
3249;SDS011;1637;42.020;23.992;2022-11-15T08:54:14;26.53;;;13.03;;
3249;SDS011;1637;42.020;23.992;2022-11-15T08:56:41;20.37;;;10.40;;
3249;SDS011;1637;42.020;23.992;2022-11-15T08:59:07;22.13;;;14.13;;
3249;SDS011;1637;42.020;23.992;2022-11-15T09:01:34;21.60;;;11.50;;
3249;SDS011;1637;42.020;23.992;2022-11-15T09:04:01;17.17;;;10.53;;
3249;SDS011;1637;42.020;23.992;2022-11-15T09:06:29;29.50;;;22.50;;
3249;SDS011;1637;42.020;23.992;2022-11-15T09:08:57;34.83;;;22.50;;
3249;SDS011;1637;42.020;23.992;2022-11-15T09:11:24;30.53;;;18.13;;
3249;SDS011;1637;42.020;23.992;2022-11-15T09:13:51;28.43;;;18.10;;
3249;SDS011;1637;42.020;23.992;2022-11-15T09:16:18;22.07;;;12.00;;
3249;SDS011;1637;42.020;23.992;2022-11-15T09:18:45;52.27;;;24.27;;
3249;SDS011;1637;42.020;23.992;2022-11-15T09:21:12;24.20;;;13.90;;
3249;SDS011;1637;42.020;23.992;2022-11-15T09:23:38;31.73;;;13.40;;
3249;SDS011;1637;42.020;23.992;2022-11-15T09:26:07;20.60;;;10.80;;
3249;SDS011;1637;42.020;23.992;2022-11-15T09:28:34;56.07;;;15.70;;
3249;SDS011;1637;42.020;23.992;2022-11-15T09:31:02;58.23;;;35.50;;
3249;SDS011;1637;42.020;23.992;2022-11-15T09:33:30;29.67;;;17.43;;
3249;SDS011;1637;42.020;23.992;2022-11-15T09:36:00;14.40;;;9.37;;
3249;SDS011;1637;42.020;23.992;2022-11-15T09:38:27;32.53;;;11.50;;
3249;SDS011;1637;42.020;23.992;2022-11-15T09:40:58;22.63;;;9.47;;
3249;SDS011;1637;42.020;23.992;2022-11-15T09:43:47;30.93;;;11.20;;
3249;SDS011;1637;42.020;23.992;2022-11-15T09:46:22;17.63;;;8.27;;
3249;SDS011;1637;42.020;23.992;2022-11-15T09:49:02;13.33;;;7.57;;
3249;SDS011;1637;42.020;23.992;2022-11-15T09:51:32;22.13;;;10.90;;
3249;SDS011;1637;42.020;23.992;2022-11-15T09:54:03;14.90;;;9.27;;
3249;SDS011;1637;42.020;23.992;2022-11-15T09:56:38;10.33;;;7.30;;
3249;SDS011;1637;42.020;23.992;2022-11-15T09:59:26;21.43;;;9.10;;
3249;SDS011;1637;42.020;23.992;2022-11-15T10:02:08;24.30;;;8.63;;
3249;SDS011;1637;42.020;23.992;2022-11-15T10:04:46;23.93;;;10.77;;
3249;SDS011;1637;42.020;23.992;2022-11-15T10:07:17;13.27;;;6.50;;
3249;SDS011;1637;42.020;23.992;2022-11-15T10:09:49;19.60;;;10.37;;
3249;SDS011;1637;42.020;23.992;2022-11-15T10:12:23;13.70;;;8.33;;
3249;SDS011;1637;42.020;23.992;2022-11-15T10:14:54;19.77;;;10.30;;
3249;SDS011;1637;42.020;23.992;2022-11-15T10:17:39;13.30;;;7.30;;
3249;SDS011;1637;42.020;23.992;2022-11-15T10:20:22;10.13;;;6.23;;
3249;SDS011;1637;42.020;23.992;2022-11-15T10:22:52;8.03;;;6.27;;
3249;SDS011;1637;42.020;23.992;2022-11-15T10:25:23;31.30;;;8.53;;
3249;SDS011;1637;42.020;23.992;2022-11-15T10:27:54;15.73;;;7.93;;
3249;SDS011;1637;42.020;23.992;2022-11-15T10:30:23;7.13;;;6.17;;
3249;SDS011;1637;42.020;23.992;2022-11-15T10:32:57;12.53;;;7.37;;
3249;SDS011;1637;42.020;23.992;2022-11-15T10:35:28;17.47;;;8.77;;
3249;SDS011;1637;42.020;23.992;2022-11-15T10:38:04;9.17;;;6.90;;
3249;SDS011;1637;42.020;23.992;2022-11-15T10:40:33;10.03;;;7.20;;
3249;SDS011;1637;42.020;23.992;2022-11-15T10:43:06;27.00;;;10.00;;
3249;SDS011;1637;42.020;23.992;2022-11-15T10:45:43;17.90;;;11.53;;
3249;SDS011;1637;42.020;23.992;2022-11-15T10:48:20;16.10;;;9.83;;
3249;SDS011;1637;42.020;23.992;2022-11-15T10:50:50;17.43;;;9.50;;
3249;SDS011;1637;42.020;23.992;2022-11-15T10:53:21;9.23;;;6.57;;
3249;SDS011;1637;42.020;23.992;2022-11-15T10:55:56;8.70;;;6.43;;
3249;SDS011;1637;42.020;23.992;2022-11-15T10:58:31;16.37;;;9.40;;
3249;SDS011;1637;42.020;23.992;2022-11-15T11:01:11;16.73;;;10.77;;
3249;SDS011;1637;42.020;23.992;2022-11-15T11:03:40;20.10;;;9.33;;
3249;SDS011;1637;42.020;23.992;2022-11-15T11:06:09;12.20;;;9.10;;
3249;SDS011;1637;42.020;23.992;2022-11-15T11:08:38;27.37;;;9.83;;
3249;SDS011;1637;42.020;23.992;2022-11-15T11:11:06;16.80;;;8.20;;
3249;SDS011;1637;42.020;23.992;2022-11-15T11:13:36;14.20;;;8.20;;
3249;SDS011;1637;42.020;23.992;2022-11-15T11:16:23;15.93;;;8.50;;
3249;SDS011;1637;42.020;23.992;2022-11-15T11:19:02;18.83;;;8.60;;
3249;SDS011;1637;42.020;23.992;2022-11-15T11:21:38;14.63;;;9.10;;
3249;SDS011;1637;42.020;23.992;2022-11-15T11:24:14;27.20;;;10.13;;
3249;SDS011;1637;42.020;23.992;2022-11-15T11:26:54;15.73;;;7.73;;
3249;SDS011;1637;42.020;23.992;2022-11-15T11:29:38;14.50;;;7.57;;
3249;SDS011;1637;42.020;23.992;2022-11-15T11:32:23;14.67;;;8.40;;
3249;SDS011;1637;42.020;23.992;2022-11-15T11:35:01;16.80;;;9.77;;
3249;SDS011;1637;42.020;23.992;2022-11-15T11:37:36;10.80;;;7.90;;
3249;SDS011;1637;42.020;23.992;2022-11-15T11:40:13;16.83;;;9.97;;
3249;SDS011;1637;42.020;23.992;2022-11-15T11:42:49;11.73;;;7.30;;
3249;SDS011;1637;42.020;23.992;2022-11-15T11:45:39;14.80;;;8.67;;
3249;SDS011;1637;42.020;23.992;2022-11-15T11:48:20;19.17;;;9.50;;
3249;SDS011;1637;42.020;23.992;2022-11-15T11:50:52;15.60;;;8.00;;
3249;SDS011;1637;42.020;23.992;2022-11-15T11:53:25;14.20;;;7.87;;
3249;SDS011;1637;42.020;23.992;2022-11-15T11:55:57;16.57;;;12.27;;
3249;SDS011;1637;42.020;23.992;2022-11-15T11:58:34;15.17;;;11.20;;
3249;SDS011;1637;42.020;23.992;2022-11-15T12:01:08;13.47;;;9.57;;
3249;SDS011;1637;42.020;23.992;2022-11-15T12:03:41;21.83;;;10.80;;
3249;SDS011;1637;42.020;23.992;2022-11-15T12:06:21;10.70;;;7.83;;
3249;SDS011;1637;42.020;23.992;2022-11-15T12:08:56;13.70;;;7.30;;
3249;SDS011;1637;42.020;23.992;2022-11-15T12:11:28;30.83;;;14.37;;
3249;SDS011;1637;42.020;23.992;2022-11-15T12:14:00;13.20;;;9.10;;
3249;SDS011;1637;42.020;23.992;2022-11-15T12:16:32;26.70;;;8.50;;
3249;SDS011;1637;42.020;23.992;2022-11-15T12:19:00;14.97;;;8.30;;
3249;SDS011;1637;42.020;23.992;2022-11-15T12:21:36;10.40;;;7.57;;
3249;SDS011;1637;42.020;23.992;2022-11-15T12:24:11;9.90;;;6.60;;
3249;SDS011;1637;42.020;23.992;2022-11-15T12:26:45;20.00;;;8.40;;
3249;SDS011;1637;42.020;23.992;2022-11-15T12:29:16;14.47;;;9.83;;
3249;SDS011;1637;42.020;23.992;2022-11-15T12:31:51;18.77;;;8.30;;
3249;SDS011;1637;42.020;23.992;2022-11-15T12:34:38;9.30;;;6.13;;
3249;SDS011;1637;42.020;23.992;2022-11-15T12:40:05;11.37;;;6.67;;
3249;SDS011;1637;42.020;23.992;2022-11-15T12:42:56;8.63;;;6.30;;
3249;SDS011;1637;42.020;23.992;2022-11-15T12:45:29;11.37;;;7.50;;
3249;SDS011;1637;42.020;23.992;2022-11-15T12:50:59;16.27;;;7.40;;
3249;SDS011;1637;42.020;23.992;2022-11-15T12:53:27;25.57;;;15.63;;
3249;SDS011;1637;42.020;23.992;2022-11-15T12:56:17;18.90;;;12.50;;
3249;SDS011;1637;42.020;23.992;2022-11-15T12:58:47;21.93;;;12.40;;
3249;SDS011;1637;42.020;23.992;2022-11-15T13:04:23;28.30;;;18.37;;
3249;SDS011;1637;42.020;23.992;2022-11-15T13:06:54;50.33;;;31.57;;
3249;SDS011;1637;42.020;23.992;2022-11-15T13:15:30;51.17;;;26.67;;
3249;SDS011;1637;42.020;23.992;2022-11-15T13:20:55;37.90;;;16.40;;
3249;SDS011;1637;42.020;23.992;2022-11-15T13:23:23;25.67;;;16.50;;
3249;SDS011;1637;42.020;23.992;2022-11-15T13:25:56;31.20;;;17.20;;
3249;SDS011;1637;42.020;23.992;2022-11-15T13:28:32;23.50;;;13.40;;
3249;SDS011;1637;42.020;23.992;2022-11-15T13:31:03;25.13;;;16.17;;
3249;SDS011;1637;42.020;23.992;2022-11-15T13:33:47;39.03;;;18.10;;
3249;SDS011;1637;42.020;23.992;2022-11-15T13:36:15;20.80;;;12.93;;
3249;SDS011;1637;42.020;23.992;2022-11-15T13:38:53;34.13;;;18.70;;
3249;SDS011;1637;42.020;23.992;2022-11-15T13:41:22;56.40;;;34.50;;
3249;SDS011;1637;42.020;23.992;2022-11-15T13:43:51;88.63;;;60.43;;
3249;SDS011;1637;42.020;23.992;2022-11-15T13:46:20;42.20;;;22.63;;
3249;SDS011;1637;42.020;23.992;2022-11-15T13:48:50;35.23;;;19.43;;
3249;SDS011;1637;42.020;23.992;2022-11-15T13:51:20;31.00;;;19.17;;
3249;SDS011;1637;42.020;23.992;2022-11-15T13:53:53;31.03;;;17.40;;
3249;SDS011;1637;42.020;23.992;2022-11-15T13:56:22;30.13;;;17.80;;
3249;SDS011;1637;42.020;23.992;2022-11-15T13:58:51;64.83;;;28.00;;
3249;SDS011;1637;42.020;23.992;2022-11-15T14:01:19;87.70;;;46.40;;
3249;SDS011;1637;42.020;23.992;2022-11-15T14:03:48;193.20;;;61.53;;
3249;SDS011;1637;42.020;23.992;2022-11-15T14:06:18;107.40;;;47.13;;
3249;SDS011;1637;42.020;23.992;2022-11-15T14:09:03;65.13;;;34.00;;
3249;SDS011;1637;42.020;23.992;2022-11-15T14:12:21;57.90;;;32.10;;
3249;SDS011;1637;42.020;23.992;2022-11-15T14:14:50;62.73;;;25.20;;
3249;SDS011;1637;42.020;23.992;2022-11-15T14:17:19;61.53;;;31.80;;
3249;SDS011;1637;42.020;23.992;2022-11-15T14:19:48;55.67;;;31.33;;
3249;SDS011;1637;42.020;23.992;2022-11-15T14:22:19;80.60;;;40.30;;
3249;SDS011;1637;42.020;23.992;2022-11-15T14:30:58;70.80;;;34.77;;
3249;SDS011;1637;42.020;23.992;2022-11-15T14:33:27;72.50;;;40.60;;
3249;SDS011;1637;42.020;23.992;2022-11-15T14:35:56;64.40;;;36.30;;
3249;SDS011;1637;42.020;23.992;2022-11-15T14:38:24;70.33;;;42.00;;
3249;SDS011;1637;42.020;23.992;2022-11-15T14:40:52;66.33;;;33.73;;
3249;SDS011;1637;42.020;23.992;2022-11-15T14:43:21;90.23;;;42.20;;
3249;SDS011;1637;42.020;23.992;2022-11-15T14:45:48;94.77;;;39.13;;
3249;SDS011;1637;42.020;23.992;2022-11-15T14:48:15;86.10;;;37.20;;
3249;SDS011;1637;42.020;23.992;2022-11-15T14:50:41;73.27;;;36.23;;
3249;SDS011;1637;42.020;23.992;2022-11-15T14:53:11;102.80;;;42.43;;
3249;SDS011;1637;42.020;23.992;2022-11-15T14:55:42;102.53;;;47.00;;
3249;SDS011;1637;42.020;23.992;2022-11-15T14:58:11;75.60;;;38.27;;
3249;SDS011;1637;42.020;23.992;2022-11-15T15:00:39;151.17;;;71.47;;
3249;SDS011;1637;42.020;23.992;2022-11-15T15:03:06;103.97;;;44.37;;
3249;SDS011;1637;42.020;23.992;2022-11-15T15:05:34;109.17;;;45.70;;
3249;SDS011;1637;42.020;23.992;2022-11-15T15:08:02;102.40;;;51.90;;
3249;SDS011;1637;42.020;23.992;2022-11-15T15:10:31;89.67;;;46.47;;
3249;SDS011;1637;42.020;23.992;2022-11-15T15:12:59;92.93;;;51.17;;
3249;SDS011;1637;42.020;23.992;2022-11-15T15:15:29;102.77;;;49.70;;
3249;SDS011;1637;42.020;23.992;2022-11-15T15:17:58;100.77;;;52.73;;
3249;SDS011;1637;42.020;23.992;2022-11-15T15:20:25;110.13;;;54.30;;